createdAt,value
2023-06-20T00:00:45.161Z,22.30
2023-06-20T00:05:49.666Z,22.30
2023-06-20T00:10:52.756Z,22.30
2023-06-20T00:15:58.971Z,22.30
2023-06-20T00:21:03.723Z,22.30
2023-06-20T00:26:07.180Z,22.20
2023-06-20T00:31:10.822Z,22.20
2023-06-20T00:36:15.688Z,22.20
2023-06-20T00:41:22.393Z,22.10
2023-06-20T00:46:25.941Z,22.10
2023-06-20T00:51:32.457Z,22.10
2023-06-20T00:56:36.006Z,22.10
2023-06-20T01:01:39.559Z,22.10
2023-06-20T01:06:49.868Z,22.10
2023-06-20T01:11:57.879Z,22.10
2023-06-20T01:17:03.278Z,22.10
2023-06-20T01:22:10.092Z,22.20
2023-06-20T01:27:16.915Z,22.10
2023-06-20T01:32:23.925Z,22.10
2023-06-20T01:37:28.121Z,22.00
2023-06-20T01:42:36.086Z,21.90
2023-06-20T01:47:40.751Z,21.80
2023-06-20T01:52:44.715Z,21.80
2023-06-20T01:57:50.421Z,21.70
2023-06-20T02:02:54.088Z,21.70
2023-06-20T02:07:58.568Z,21.60
2023-06-20T02:13:04.010Z,21.70
2023-06-20T02:18:07.606Z,21.70
2023-06-20T02:23:12.195Z,21.70
2023-06-20T02:28:18.425Z,21.70
2023-06-20T02:33:23.839Z,21.70
2023-06-20T02:38:27.587Z,21.70
2023-06-20T02:43:32.496Z,21.60
2023-06-20T02:48:40.681Z,21.60
2023-06-20T02:53:46.850Z,21.50
2023-06-20T02:58:53.733Z,21.40
2023-06-20T03:03:58.217Z,21.40
2023-06-20T03:09:04.115Z,21.40
2023-06-20T03:14:14.653Z,21.40
2023-06-20T03:19:18.114Z,21.20
2023-06-20T03:24:22.446Z,21.10
2023-06-20T03:29:27.342Z,21.10
2023-06-20T03:34:31.653Z,21.20
2023-06-20T03:39:35.163Z,21.20
2023-06-20T03:44:40.360Z,21.30
2023-06-20T03:49:45.449Z,21.40
2023-06-20T03:54:49.641Z,21.50
2023-06-20T03:59:54.630Z,21.60
2023-06-20T04:04:58.680Z,21.70
2023-06-20T04:10:02.219Z,21.90
2023-06-20T04:15:07.621Z,21.90
2023-06-20T04:20:14.619Z,22.10
2023-06-20T04:25:19.208Z,22.00
2023-06-20T04:30:26.064Z,22.10
2023-06-20T04:35:30.592Z,22.10
2023-06-20T04:40:33.689Z,22.30
2023-06-20T04:45:39.563Z,22.30
2023-06-20T04:50:42.863Z,22.40
2023-06-20T04:55:45.909Z,22.40
2023-06-20T05:00:50.369Z,22.40
2023-06-20T05:05:53.623Z,22.50
2023-06-20T05:10:57.133Z,22.60
2023-06-20T05:16:01.573Z,22.50
2023-06-20T05:21:05.019Z,22.40
2023-06-20T05:26:08.302Z,22.30
2023-06-20T05:31:13.249Z,22.20
2023-06-20T05:36:16.674Z,22.20
2023-06-20T05:41:20.076Z,22.10
2023-06-20T05:46:24.879Z,21.90
2023-06-20T05:51:29.296Z,21.70
2023-06-20T05:56:32.701Z,22.00
2023-06-20T06:01:37.154Z,22.40
2023-06-20T06:06:40.823Z,23.00
2023-06-20T06:11:44.282Z,23.30
2023-06-20T06:16:49.212Z,23.40
2023-06-20T06:21:53.667Z,23.70
2023-06-20T06:26:57.094Z,23.80
2023-06-20T06:32:02.254Z,23.80
2023-06-20T06:37:06.376Z,23.80
2023-06-20T06:42:10.375Z,24.00
2023-06-20T06:47:14.794Z,23.90
2023-06-20T06:52:17.934Z,23.80
2023-06-20T06:57:20.952Z,23.70
2023-06-20T07:02:27.762Z,23.40
2023-06-20T07:07:31.169Z,23.10
2023-06-20T07:12:34.203Z,22.80
2023-06-20T07:17:38.904Z,22.40
2023-06-20T07:22:42.265Z,22.00
2023-06-20T07:27:45.689Z,21.50
2023-06-20T07:32:50.709Z,21.10
2023-06-20T07:37:54.095Z,20.90
2023-06-20T07:42:57.206Z,20.80
2023-06-20T07:48:02.080Z,20.70
2023-06-20T07:53:05.588Z,20.60
2023-06-20T07:58:09.229Z,20.50
2023-06-20T08:03:13.720Z,20.60
2023-06-20T08:08:16.765Z,20.80
2023-06-20T08:13:19.777Z,20.60
2023-06-20T08:18:24.157Z,20.60
2023-06-20T08:23:27.263Z,20.40
2023-06-20T08:28:30.358Z,20.30
2023-06-20T08:33:34.776Z,19.80
2023-06-20T08:38:39.468Z,19.50
2023-06-20T08:43:42.624Z,19.10
2023-06-20T08:48:49.507Z,19.00
2023-06-20T08:53:55.013Z,18.80
2023-06-20T08:58:58.641Z,18.90
2023-06-20T09:04:03.309Z,19.60
2023-06-20T09:09:07.432Z,19.90
2023-06-20T09:14:10.656Z,20.90
2023-06-20T09:19:15.485Z,21.10
2023-06-20T09:24:20.477Z,21.60
2023-06-20T09:29:23.949Z,22.10
2023-06-20T09:34:28.737Z,22.50
2023-06-20T09:39:33.876Z,22.80
2023-06-20T09:44:36.998Z,23.10
2023-06-20T09:49:42.089Z,23.30
2023-06-20T09:54:46.184Z,23.70
2023-06-20T09:59:52.127Z,23.80
2023-06-20T10:04:56.764Z,24.10
2023-06-20T10:10:00.468Z,24.80
2023-06-20T10:15:04.824Z,25.30
2023-06-20T10:20:10.291Z,25.50
2023-06-20T10:25:14.792Z,25.60
2023-06-20T10:30:18.004Z,25.90
2023-06-20T10:35:24.984Z,26.00
2023-06-20T10:40:32.191Z,26.10
2023-06-20T10:45:36.395Z,26.20
2023-06-20T10:50:41.460Z,26.20
2023-06-20T10:55:46.340Z,26.50
2023-06-20T11:00:52.976Z,26.50
2023-06-20T11:05:57.969Z,26.50
2023-06-20T11:11:03.619Z,26.50
2023-06-20T11:16:06.851Z,26.60
2023-06-20T11:21:12.221Z,26.80
2023-06-20T11:26:15.253Z,26.80
2023-06-20T11:31:18.375Z,27.00
2023-06-20T11:36:23.392Z,27.30
2023-06-20T11:41:31.505Z,27.30
2023-06-20T11:46:34.680Z,27.40
2023-06-20T11:51:40.506Z,27.90
2023-06-20T11:56:43.686Z,31.10
2023-06-20T12:01:46.981Z,28.50
2023-06-20T12:06:54.473Z,28.50
2023-06-20T12:11:58.231Z,28.80
2023-06-20T12:17:01.240Z,29.00
2023-06-20T12:22:05.960Z,29.20
2023-06-20T12:27:09.419Z,29.40
2023-06-20T12:32:12.994Z,29.40
2023-06-20T12:37:17.473Z,29.10
2023-06-20T12:42:21.151Z,29.20
2023-06-20T12:47:24.777Z,29.30
2023-06-20T12:52:29.207Z,29.40
2023-06-20T12:57:33.599Z,29.40
2023-06-20T13:02:36.804Z,29.90
2023-06-20T13:07:42.006Z,30.50
2023-06-20T13:12:46.465Z,30.70
2023-06-20T13:17:49.543Z,30.60
2023-06-20T13:22:54.019Z,30.70
2023-06-20T13:27:57.120Z,30.60
2023-06-20T13:33:00.547Z,30.50
2023-06-20T13:38:05.855Z,30.30
2023-06-20T13:43:09.231Z,30.30
2023-06-20T13:48:13.170Z,30.60
2023-06-20T13:53:18.055Z,30.90
2023-06-20T13:58:21.452Z,30.80
2023-06-20T14:03:24.523Z,30.90
2023-06-20T14:08:29.094Z,30.90
2023-06-20T14:13:32.208Z,30.80
2023-06-20T14:18:35.300Z,30.90
2023-06-20T14:23:39.741Z,30.90
2023-06-20T14:28:42.776Z,31.00
2023-06-20T14:33:45.875Z,31.20
2023-06-20T14:38:50.397Z,31.30
2023-06-20T14:43:53.623Z,31.60
2023-06-20T14:48:56.725Z,31.70
2023-06-20T14:54:04.075Z,31.90
2023-06-20T14:59:08.096Z,31.90
2023-06-20T15:04:12.850Z,31.80
2023-06-20T15:09:17.744Z,31.90
2023-06-20T15:14:22.618Z,31.90
2023-06-20T15:19:27.811Z,31.90
2023-06-20T15:24:34.725Z,32.10
2023-06-20T15:29:38.537Z,32.20
2023-06-20T15:34:42.300Z,32.50
2023-06-20T15:39:47.548Z,32.70
2023-06-20T15:44:51.095Z,33.00
2023-06-20T15:49:54.648Z,33.10
2023-06-20T15:54:59.499Z,33.20
2023-06-20T16:00:03.125Z,33.30
2023-06-20T16:05:11.365Z,33.40
2023-06-20T16:10:16.298Z,33.40
2023-06-20T16:15:19.477Z,33.20
2023-06-20T16:20:22.526Z,33.10
2023-06-20T16:25:27.140Z,33.10
2023-06-20T16:30:30.287Z,33.10
2023-06-20T16:35:33.943Z,33.30
2023-06-20T16:40:38.821Z,33.10
2023-06-20T16:45:42.801Z,33.70
2023-06-20T16:50:47.066Z,34.20
2023-06-20T16:55:52.118Z,35.40
2023-06-20T17:00:56.750Z,35.80
2023-06-20T17:06:00.216Z,36.20
2023-06-20T17:11:05.130Z,36.40
2023-06-20T17:16:08.714Z,36.50
2023-06-20T17:21:12.354Z,36.20
2023-06-20T17:26:17.308Z,36.20
2023-06-20T17:31:21.123Z,36.20
2023-06-20T17:36:24.747Z,36.20
2023-06-20T17:41:29.903Z,35.80
2023-06-20T17:46:43.228Z,35.50
2023-06-20T17:56:59.831Z,34.90
2023-06-20T18:02:03.619Z,35.00
2023-06-20T18:07:07.635Z,34.90
2023-06-20T18:12:12.457Z,34.30
2023-06-20T18:17:18.302Z,34.20
2023-06-20T18:22:23.933Z,33.60
2023-06-20T18:27:28.800Z,33.60
2023-06-20T18:32:32.288Z,32.80
2023-06-20T18:37:35.899Z,32.80
2023-06-20T18:42:40.634Z,32.10
2023-06-20T18:47:45.937Z,32.00
2023-06-20T18:52:49.721Z,31.10
2023-06-20T18:57:54.260Z,31.00
2023-06-20T19:02:58.016Z,30.20
2023-06-20T19:08:01.735Z,30.00
2023-06-20T19:13:06.610Z,29.40
2023-06-20T19:18:10.283Z,29.30
2023-06-20T19:23:14.380Z,28.70
2023-06-20T19:33:40.162Z,28.20
2023-06-20T19:38:43.651Z,28.10
2023-06-20T19:43:48.574Z,27.70
2023-06-20T19:48:52.454Z,27.60
2023-06-20T19:53:55.924Z,27.20
2023-06-20T19:59:02.180Z,27.10
2023-06-20T20:04:08.164Z,26.70
2023-06-20T20:09:12.805Z,26.70
2023-06-20T20:14:17.272Z,26.40
2023-06-20T20:19:22.892Z,26.40
2023-06-20T20:24:26.174Z,26.30
2023-06-20T20:29:31.088Z,26.20
2023-06-20T20:34:35.895Z,26.10
2023-06-20T20:39:39.255Z,25.90
2023-06-20T20:44:47.963Z,25.80
2023-06-20T20:49:51.414Z,25.60
2023-06-20T20:54:54.696Z,25.40
2023-06-20T20:59:59.591Z,25.40
2023-06-20T21:05:03.058Z,25.20
2023-06-20T21:10:07.101Z,25.10
2023-06-20T21:15:13.563Z,25.00
2023-06-20T21:20:17.198Z,24.90
2023-06-20T21:25:20.749Z,24.80
2023-06-20T21:30:26.219Z,24.70
2023-06-20T21:35:29.927Z,24.60
2023-06-20T21:40:33.525Z,24.50
2023-06-20T21:45:39.599Z,24.50
2023-06-20T21:50:44.195Z,24.50
2023-06-20T21:55:47.631Z,24.50
2023-06-20T22:00:54.343Z,24.50
2023-06-20T22:05:57.436Z,24.50
2023-06-20T22:11:00.602Z,24.40
2023-06-20T22:16:05.349Z,24.40
2023-06-20T22:21:08.807Z,24.40
2023-06-20T22:26:12.717Z,24.40
2023-06-20T22:31:17.689Z,24.40
2023-06-20T22:36:21.215Z,24.40
2023-06-20T22:41:24.676Z,24.30
2023-06-20T22:46:29.699Z,24.30
2023-06-20T22:51:33.263Z,24.30
2023-06-20T22:56:37.894Z,24.30
2023-06-20T23:01:42.766Z,24.30
2023-06-20T23:06:46.398Z,24.30
2023-06-20T23:11:49.795Z,24.30
2023-06-20T23:16:54.441Z,24.30
2023-06-20T23:21:57.917Z,24.30
2023-06-20T23:27:01.234Z,24.30
2023-06-20T23:32:06.310Z,24.30
2023-06-20T23:37:10.232Z,24.40
2023-06-20T23:42:14.264Z,24.50
2023-06-20T23:47:19.041Z,24.50
2023-06-20T23:52:23.278Z,24.50
2023-06-20T23:57:26.765Z,24.50
